sensor_id;sensor_type;location;lat;lon;timestamp;temperature;humidity
23507;DHT22;11930;53.076;18.250;2022-09-21T00:02:17;9.50;99.90
23507;DHT22;11930;53.076;18.250;2022-09-21T00:04:43;9.50;99.90
23507;DHT22;11930;53.076;18.250;2022-09-21T00:07:09;9.50;99.90
23507;DHT22;11930;53.076;18.250;2022-09-21T00:09:35;9.50;99.90
23507;DHT22;11930;53.076;18.250;2022-09-21T00:12:01;9.60;99.90
23507;DHT22;11930;53.076;18.250;2022-09-21T00:14:27;9.60;99.90
23507;DHT22;11930;53.076;18.250;2022-09-21T00:16:53;9.60;99.90
23507;DHT22;11930;53.076;18.250;2022-09-21T00:19:20;9.70;99.90
23507;DHT22;11930;53.076;18.250;2022-09-21T00:21:47;9.70;99.90
23507;DHT22;11930;53.076;18.250;2022-09-21T00:24:13;9.70;99.90
23507;DHT22;11930;53.076;18.250;2022-09-21T00:26:39;9.80;99.90
23507;DHT22;11930;53.076;18.250;2022-09-21T00:29:05;9.80;99.90
23507;DHT22;11930;53.076;18.250;2022-09-21T00:31:33;9.90;99.90
23507;DHT22;11930;53.076;18.250;2022-09-21T00:33:59;10.00;99.90
23507;DHT22;11930;53.076;18.250;2022-09-21T00:36:26;9.90;99.90
23507;DHT22;11930;53.076;18.250;2022-09-21T00:38:55;9.90;99.90
23507;DHT22;11930;53.076;18.250;2022-09-21T00:41:23;10.00;99.90
23507;DHT22;11930;53.076;18.250;2022-09-21T00:46:41;10.10;99.90
23507;DHT22;11930;53.076;18.250;2022-09-21T00:49:08;10.10;99.90
23507;DHT22;11930;53.076;18.250;2022-09-21T00:51:35;10.10;99.90
23507;DHT22;11930;53.076;18.250;2022-09-21T00:54:04;10.20;99.90
23507;DHT22;11930;53.076;18.250;2022-09-21T00:56:33;10.20;99.90
23507;DHT22;11930;53.076;18.250;2022-09-21T00:59:00;10.20;99.90
23507;DHT22;11930;53.076;18.250;2022-09-21T01:01:26;10.30;99.90
23507;DHT22;11930;53.076;18.250;2022-09-21T01:03:53;10.30;99.90
23507;DHT22;11930;53.076;18.250;2022-09-21T01:06:22;10.30;99.90
23507;DHT22;11930;53.076;18.250;2022-09-21T01:08:52;10.30;99.90
23507;DHT22;11930;53.076;18.250;2022-09-21T01:17:17;10.20;99.90
23507;DHT22;11930;53.076;18.250;2022-09-21T01:28:59;10.20;99.90
23507;DHT22;11930;53.076;18.250;2022-09-21T01:31:48;10.20;99.90
23507;DHT22;11930;53.076;18.250;2022-09-21T01:37:06;10.30;99.90
23507;DHT22;11930;53.076;18.250;2022-09-21T01:39:35;10.30;99.90
23507;DHT22;11930;53.076;18.250;2022-09-21T01:42:05;10.30;99.90
23507;DHT22;11930;53.076;18.250;2022-09-21T01:44:34;10.30;99.90
23507;DHT22;11930;53.076;18.250;2022-09-21T01:47:02;10.40;99.90
23507;DHT22;11930;53.076;18.250;2022-09-21T01:49:37;10.40;99.90
23507;DHT22;11930;53.076;18.250;2022-09-21T01:52:11;10.40;99.90
23507;DHT22;11930;53.076;18.250;2022-09-21T01:54:45;10.50;99.90
23507;DHT22;11930;53.076;18.250;2022-09-21T01:57:17;10.50;99.90
23507;DHT22;11930;53.076;18.250;2022-09-21T01:59:55;10.50;99.90
23507;DHT22;11930;53.076;18.250;2022-09-21T02:03:24;10.50;99.90
23507;DHT22;11930;53.076;18.250;2022-09-21T02:05:29;10.40;99.90
23507;DHT22;11930;53.076;18.250;2022-09-21T02:07:57;10.40;99.90
23507;DHT22;11930;53.076;18.250;2022-09-21T02:10:48;10.30;99.90
23507;DHT22;11930;53.076;18.250;2022-09-21T02:13:16;10.30;99.90
23507;DHT22;11930;53.076;18.250;2022-09-21T02:21:28;10.10;99.90
23507;DHT22;11930;53.076;18.250;2022-09-21T02:24:13;9.90;99.90
23507;DHT22;11930;53.076;18.250;2022-09-21T02:35:23;9.30;99.90
23507;DHT22;11930;53.076;18.250;2022-09-21T02:38:38;9.20;99.90
23507;DHT22;11930;53.076;18.250;2022-09-21T02:40:52;9.10;99.90
23507;DHT22;11930;53.076;18.250;2022-09-21T02:43:38;8.90;99.90
23507;DHT22;11930;53.076;18.250;2022-09-21T02:46:13;8.90;99.90
23507;DHT22;11930;53.076;18.250;2022-09-21T02:48:49;8.80;99.90
23507;DHT22;11930;53.076;18.250;2022-09-21T02:51:21;8.60;99.90
23507;DHT22;11930;53.076;18.250;2022-09-21T02:53:52;8.60;99.90
23507;DHT22;11930;53.076;18.250;2022-09-21T02:56:20;8.50;99.90
23507;DHT22;11930;53.076;18.250;2022-09-21T02:58:50;8.40;99.90
23507;DHT22;11930;53.076;18.250;2022-09-21T03:01:19;8.30;99.90
23507;DHT22;11930;53.076;18.250;2022-09-21T03:03:47;8.30;99.90
23507;DHT22;11930;53.076;18.250;2022-09-21T03:06:13;8.20;99.90
23507;DHT22;11930;53.076;18.250;2022-09-21T03:08:39;8.10;99.90
23507;DHT22;11930;53.076;18.250;2022-09-21T03:11:06;8.10;99.90
23507;DHT22;11930;53.076;18.250;2022-09-21T03:13:32;8.10;99.90
23507;DHT22;11930;53.076;18.250;2022-09-21T03:16:04;8.10;99.90
23507;DHT22;11930;53.076;18.250;2022-09-21T03:18:32;8.20;99.90
23507;DHT22;11930;53.076;18.250;2022-09-21T03:21:02;8.30;99.90
23507;DHT22;11930;53.076;18.250;2022-09-21T03:23:29;8.30;99.90
23507;DHT22;11930;53.076;18.250;2022-09-21T03:25:55;8.40;99.90
23507;DHT22;11930;53.076;18.250;2022-09-21T03:28:23;8.50;99.90
23507;DHT22;11930;53.076;18.250;2022-09-21T03:30:51;8.50;99.90
23507;DHT22;11930;53.076;18.250;2022-09-21T03:33:18;8.50;99.90
23507;DHT22;11930;53.076;18.250;2022-09-21T03:35:44;8.50;99.90
23507;DHT22;11930;53.076;18.250;2022-09-21T03:38:12;8.50;99.90
23507;DHT22;11930;53.076;18.250;2022-09-21T03:40:38;8.50;99.90
23507;DHT22;11930;53.076;18.250;2022-09-21T03:43:04;8.50;99.90
23507;DHT22;11930;53.076;18.250;2022-09-21T03:45:31;8.50;99.90
23507;DHT22;11930;53.076;18.250;2022-09-21T03:47:58;8.50;99.90
23507;DHT22;11930;53.076;18.250;2022-09-21T03:50:26;8.40;99.90
23507;DHT22;11930;53.076;18.250;2022-09-21T03:52:54;8.40;99.90
23507;DHT22;11930;53.076;18.250;2022-09-21T03:55:20;8.30;99.90
23507;DHT22;11930;53.076;18.250;2022-09-21T03:57:47;8.40;99.90
23507;DHT22;11930;53.076;18.250;2022-09-21T04:00:14;8.40;99.90
23507;DHT22;11930;53.076;18.250;2022-09-21T04:02:40;8.40;99.90
23507;DHT22;11930;53.076;18.250;2022-09-21T04:05:09;8.50;99.90
23507;DHT22;11930;53.076;18.250;2022-09-21T04:07:36;8.50;99.90
23507;DHT22;11930;53.076;18.250;2022-09-21T04:10:04;8.50;99.90
23507;DHT22;11930;53.076;18.250;2022-09-21T04:12:34;8.50;99.90
23507;DHT22;11930;53.076;18.250;2022-09-21T04:15:01;8.50;99.90
23507;DHT22;11930;53.076;18.250;2022-09-21T04:17:27;8.50;99.90
23507;DHT22;11930;53.076;18.250;2022-09-21T04:19:54;8.50;99.90
23507;DHT22;11930;53.076;18.250;2022-09-21T04:22:20;8.50;99.90
23507;DHT22;11930;53.076;18.250;2022-09-21T04:24:50;8.50;99.90
23507;DHT22;11930;53.076;18.250;2022-09-21T04:27:16;8.50;99.90
23507;DHT22;11930;53.076;18.250;2022-09-21T04:29:43;8.40;99.90
23507;DHT22;11930;53.076;18.250;2022-09-21T04:32:10;8.40;99.90
23507;DHT22;11930;53.076;18.250;2022-09-21T04:34:36;8.40;99.90
23507;DHT22;11930;53.076;18.250;2022-09-21T04:37:05;8.40;99.90
23507;DHT22;11930;53.076;18.250;2022-09-21T04:39:34;8.40;99.90
23507;DHT22;11930;53.076;18.250;2022-09-21T04:42:00;8.50;99.90
23507;DHT22;11930;53.076;18.250;2022-09-21T04:44:27;8.50;99.90
23507;DHT22;11930;53.076;18.250;2022-09-21T04:46:53;8.60;99.90
23507;DHT22;11930;53.076;18.250;2022-09-21T04:49:19;8.70;99.90
23507;DHT22;11930;53.076;18.250;2022-09-21T04:51:46;8.80;99.90
23507;DHT22;11930;53.076;18.250;2022-09-21T04:54:12;8.90;99.90
23507;DHT22;11930;53.076;18.250;2022-09-21T04:56:38;9.00;99.90
23507;DHT22;11930;53.076;18.250;2022-09-21T04:59:05;9.00;99.90
23507;DHT22;11930;53.076;18.250;2022-09-21T05:01:31;9.10;99.90
23507;DHT22;11930;53.076;18.250;2022-09-21T05:03:57;9.20;99.90
23507;DHT22;11930;53.076;18.250;2022-09-21T05:06:32;9.30;99.90
23507;DHT22;11930;53.076;18.250;2022-09-21T05:08:59;9.30;99.90
23507;DHT22;11930;53.076;18.250;2022-09-21T05:11:44;9.40;99.90
23507;DHT22;11930;53.076;18.250;2022-09-21T05:14:10;9.50;99.90
23507;DHT22;11930;53.076;18.250;2022-09-21T05:16:36;9.60;99.90
23507;DHT22;11930;53.076;18.250;2022-09-21T05:19:03;9.70;99.90
23507;DHT22;11930;53.076;18.250;2022-09-21T05:21:30;9.70;99.90
23507;DHT22;11930;53.076;18.250;2022-09-21T05:23:57;9.80;99.90
23507;DHT22;11930;53.076;18.250;2022-09-21T05:26:23;9.90;99.90
23507;DHT22;11930;53.076;18.250;2022-09-21T05:28:50;9.90;99.90
23507;DHT22;11930;53.076;18.250;2022-09-21T05:34:03;10.10;99.90
23507;DHT22;11930;53.076;18.250;2022-09-21T05:39:10;10.20;99.90
23507;DHT22;11930;53.076;18.250;2022-09-21T05:41:37;10.30;99.90
23507;DHT22;11930;53.076;18.250;2022-09-21T05:44:03;10.20;99.90
23507;DHT22;11930;53.076;18.250;2022-09-21T05:49:21;10.30;99.90
23507;DHT22;11930;53.076;18.250;2022-09-21T05:52:01;10.30;99.90
23507;DHT22;11930;53.076;18.250;2022-09-21T05:57:23;10.40;99.90
23507;DHT22;11930;53.076;18.250;2022-09-21T06:00:19;10.40;99.90
23507;DHT22;11930;53.076;18.250;2022-09-21T06:05:44;10.50;99.90
23507;DHT22;11930;53.076;18.250;2022-09-21T06:08:10;10.50;99.90
23507;DHT22;11930;53.076;18.250;2022-09-21T06:10:36;10.60;99.90
23507;DHT22;11930;53.076;18.250;2022-09-21T06:13:02;10.70;99.90
23507;DHT22;11930;53.076;18.250;2022-09-21T06:15:29;10.80;99.90
23507;DHT22;11930;53.076;18.250;2022-09-21T06:17:57;10.80;99.90
23507;DHT22;11930;53.076;18.250;2022-09-21T06:20:24;11.00;99.90
23507;DHT22;11930;53.076;18.250;2022-09-21T06:22:50;11.10;99.90
23507;DHT22;11930;53.076;18.250;2022-09-21T06:25:16;11.20;99.90
23507;DHT22;11930;53.076;18.250;2022-09-21T06:27:44;11.40;99.90
23507;DHT22;11930;53.076;18.250;2022-09-21T06:30:11;11.60;99.90
23507;DHT22;11930;53.076;18.250;2022-09-21T06:32:37;11.80;99.90
23507;DHT22;11930;53.076;18.250;2022-09-21T06:35:03;12.10;99.90
23507;DHT22;11930;53.076;18.250;2022-09-21T06:37:29;12.30;99.90
23507;DHT22;11930;53.076;18.250;2022-09-21T06:39:55;12.60;99.90
23507;DHT22;11930;53.076;18.250;2022-09-21T06:42:21;12.90;99.90
23507;DHT22;11930;53.076;18.250;2022-09-21T06:44:48;13.20;99.90
23507;DHT22;11930;53.076;18.250;2022-09-21T06:47:14;13.50;99.90
23507;DHT22;11930;53.076;18.250;2022-09-21T06:49:40;14.00;99.90
23507;DHT22;11930;53.076;18.250;2022-09-21T06:52:06;14.80;99.90
23507;DHT22;11930;53.076;18.250;2022-09-21T06:54:33;15.30;99.90
23507;DHT22;11930;53.076;18.250;2022-09-21T06:57:00;15.60;99.90
23507;DHT22;11930;53.076;18.250;2022-09-21T06:59:26;15.40;99.90
23507;DHT22;11930;53.076;18.250;2022-09-21T07:01:52;15.70;99.90
23507;DHT22;11930;53.076;18.250;2022-09-21T07:04:21;17.00;99.90
23507;DHT22;11930;53.076;18.250;2022-09-21T07:06:50;18.40;99.90
23507;DHT22;11930;53.076;18.250;2022-09-21T07:09:16;19.90;99.90
23507;DHT22;11930;53.076;18.250;2022-09-21T07:11:42;21.00;93.50
23507;DHT22;11930;53.076;18.250;2022-09-21T07:14:08;21.30;88.10
23507;DHT22;11930;53.076;18.250;2022-09-21T07:16:34;22.20;83.50
23507;DHT22;11930;53.076;18.250;2022-09-21T07:19:01;23.20;77.30
23507;DHT22;11930;53.076;18.250;2022-09-21T07:21:29;23.70;71.20
23507;DHT22;11930;53.076;18.250;2022-09-21T07:23:58;24.20;67.90
23507;DHT22;11930;53.076;18.250;2022-09-21T07:26:24;24.70;63.70
23507;DHT22;11930;53.076;18.250;2022-09-21T07:28:50;23.40;64.30
23507;DHT22;11930;53.076;18.250;2022-09-21T07:31:16;22.40;65.60
23507;DHT22;11930;53.076;18.250;2022-09-21T07:33:43;20.70;71.90
23507;DHT22;11930;53.076;18.250;2022-09-21T07:36:11;19.60;76.80
23507;DHT22;11930;53.076;18.250;2022-09-21T07:38:40;19.20;81.40
23507;DHT22;11930;53.076;18.250;2022-09-21T07:41:11;19.30;84.90
23507;DHT22;11930;53.076;18.250;2022-09-21T07:43:38;19.40;85.00
23507;DHT22;11930;53.076;18.250;2022-09-21T07:46:09;20.80;80.20
23507;DHT22;11930;53.076;18.250;2022-09-21T07:48:36;22.10;73.60
23507;DHT22;11930;53.076;18.250;2022-09-21T07:51:08;23.00;69.10
23507;DHT22;11930;53.076;18.250;2022-09-21T07:53:36;23.60;65.70
23507;DHT22;11930;53.076;18.250;2022-09-21T07:56:05;23.60;61.90
23507;DHT22;11930;53.076;18.250;2022-09-21T07:58:31;24.50;59.10
23507;DHT22;11930;53.076;18.250;2022-09-21T08:01:16;24.40;57.80
23507;DHT22;11930;53.076;18.250;2022-09-21T08:03:42;24.10;58.10
23507;DHT22;11930;53.076;18.250;2022-09-21T08:06:09;24.50;57.80
23507;DHT22;11930;53.076;18.250;2022-09-21T08:08:35;24.90;58.50
23507;DHT22;11930;53.076;18.250;2022-09-21T08:11:06;25.10;57.90
23507;DHT22;11930;53.076;18.250;2022-09-21T08:13:32;25.50;56.20
23507;DHT22;11930;53.076;18.250;2022-09-21T08:16:00;25.60;54.80
23507;DHT22;11930;53.076;18.250;2022-09-21T08:18:28;25.40;54.40
23507;DHT22;11930;53.076;18.250;2022-09-21T08:20:54;25.00;54.10
23507;DHT22;11930;53.076;18.250;2022-09-21T08:23:22;23.70;56.60
23507;DHT22;11930;53.076;18.250;2022-09-21T08:25:48;23.30;58.50
23507;DHT22;11930;53.076;18.250;2022-09-21T08:28:14;23.30;58.10
23507;DHT22;11930;53.076;18.250;2022-09-21T08:30:41;23.60;57.40
23507;DHT22;11930;53.076;18.250;2022-09-21T08:33:07;23.50;56.30
23507;DHT22;11930;53.076;18.250;2022-09-21T08:35:34;23.40;56.90
23507;DHT22;11930;53.076;18.250;2022-09-21T08:38:01;22.90;58.80
23507;DHT22;11930;53.076;18.250;2022-09-21T08:40:28;23.20;58.10
23507;DHT22;11930;53.076;18.250;2022-09-21T08:43:07;23.30;57.80
23507;DHT22;11930;53.076;18.250;2022-09-21T08:45:41;22.90;56.90
23507;DHT22;11930;53.076;18.250;2022-09-21T08:48:19;23.20;57.00
23507;DHT22;11930;53.076;18.250;2022-09-21T08:50:56;22.80;58.10
23507;DHT22;11930;53.076;18.250;2022-09-21T08:53:32;22.20;59.40
23507;DHT22;11930;53.076;18.250;2022-09-21T08:56:00;21.00;64.30
23507;DHT22;11930;53.076;18.250;2022-09-21T08:58:29;20.20;65.90
23507;DHT22;11930;53.076;18.250;2022-09-21T09:01:20;19.50;69.90
23507;DHT22;11930;53.076;18.250;2022-09-21T09:14:57;17.70;81.60
23507;DHT22;11930;53.076;18.250;2022-09-21T09:22:49;17.20;86.40
23507;DHT22;11930;53.076;18.250;2022-09-21T09:25:21;17.40;87.50
23507;DHT22;11930;53.076;18.250;2022-09-21T09:27:56;17.90;87.90
23507;DHT22;11930;53.076;18.250;2022-09-21T09:30:25;18.40;81.00
23507;DHT22;11930;53.076;18.250;2022-09-21T09:32:53;18.30;79.70
23507;DHT22;11930;53.076;18.250;2022-09-21T09:35:50;18.50;82.00
23507;DHT22;11930;53.076;18.250;2022-09-21T09:38:27;18.50;81.80
23507;DHT22;11930;53.076;18.250;2022-09-21T09:49:06;18.50;78.50
23507;DHT22;11930;53.076;18.250;2022-09-21T09:51:34;18.70;79.00
23507;DHT22;11930;53.076;18.250;2022-09-21T09:54:07;18.80;78.30
23507;DHT22;11930;53.076;18.250;2022-09-21T09:56:38;18.70;77.50
23507;DHT22;11930;53.076;18.250;2022-09-21T09:59:10;18.90;76.80
23507;DHT22;11930;53.076;18.250;2022-09-21T10:01:42;19.20;77.30
23507;DHT22;11930;53.076;18.250;2022-09-21T10:04:14;19.20;76.50
23507;DHT22;11930;53.076;18.250;2022-09-21T10:06:41;19.50;75.20
23507;DHT22;11930;53.076;18.250;2022-09-21T10:09:26;19.70;73.00
23507;DHT22;11930;53.076;18.250;2022-09-21T10:12:02;19.20;75.90
23507;DHT22;11930;53.076;18.250;2022-09-21T10:14:38;18.00;91.40
23507;DHT22;11930;53.076;18.250;2022-09-21T10:17:16;16.90;97.40
23507;DHT22;11930;53.076;18.250;2022-09-21T10:19:42;16.20;99.90
23507;DHT22;11930;53.076;18.250;2022-09-21T10:22:15;15.50;99.90
23507;DHT22;11930;53.076;18.250;2022-09-21T10:24:48;15.10;99.90
23507;DHT22;11930;53.076;18.250;2022-09-21T10:27:29;14.50;99.90
23507;DHT22;11930;53.076;18.250;2022-09-21T10:29:58;14.20;99.90
23507;DHT22;11930;53.076;18.250;2022-09-21T10:32:28;14.00;99.90
23507;DHT22;11930;53.076;18.250;2022-09-21T10:37:37;13.80;99.90
23507;DHT22;11930;53.076;18.250;2022-09-21T10:40:22;13.70;99.90
23507;DHT22;11930;53.076;18.250;2022-09-21T10:42:51;13.80;99.90
23507;DHT22;11930;53.076;18.250;2022-09-21T10:45:28;14.00;99.90
23507;DHT22;11930;53.076;18.250;2022-09-21T10:48:15;14.10;99.90
23507;DHT22;11930;53.076;18.250;2022-09-21T10:50:47;14.20;99.90
23507;DHT22;11930;53.076;18.250;2022-09-21T10:53:27;14.50;99.90
23507;DHT22;11930;53.076;18.250;2022-09-21T10:56:04;14.60;99.90
23507;DHT22;11930;53.076;18.250;2022-09-21T10:58:32;14.90;99.90
23507;DHT22;11930;53.076;18.250;2022-09-21T11:01:19;15.10;99.90
23507;DHT22;11930;53.076;18.250;2022-09-21T11:03:59;15.10;99.90
23507;DHT22;11930;53.076;18.250;2022-09-21T11:06:40;15.10;99.90
23507;DHT22;11930;53.076;18.250;2022-09-21T11:11:48;15.40;99.90
23507;DHT22;11930;53.076;18.250;2022-09-21T11:17:38;15.60;99.90
23507;DHT22;11930;53.076;18.250;2022-09-21T11:22:43;15.80;99.90
23507;DHT22;11930;53.076;18.250;2022-09-21T11:36:33;16.40;99.90
23507;DHT22;11930;53.076;18.250;2022-09-21T11:41:36;16.50;99.90
23507;DHT22;11930;53.076;18.250;2022-09-21T12:07:09;16.80;99.90
23507;DHT22;11930;53.076;18.250;2022-09-21T12:12:20;16.80;99.90
23507;DHT22;11930;53.076;18.250;2022-09-21T12:17:16;16.80;99.90
23507;DHT22;11930;53.076;18.250;2022-09-21T12:22:35;16.50;99.90
23507;DHT22;11930;53.076;18.250;2022-09-21T12:27:41;16.10;99.90
23507;DHT22;11930;53.076;18.250;2022-09-21T12:30:20;15.90;99.90
23507;DHT22;11930;53.076;18.250;2022-09-21T12:38:12;15.60;99.90
23507;DHT22;11930;53.076;18.250;2022-09-21T12:40:54;15.60;99.90
23507;DHT22;11930;53.076;18.250;2022-09-21T12:43:40;15.60;99.90
23507;DHT22;11930;53.076;18.250;2022-09-21T12:46:24;15.50;99.90
23507;DHT22;11930;53.076;18.250;2022-09-21T12:48:52;15.70;99.90
23507;DHT22;11930;53.076;18.250;2022-09-21T12:51:41;15.80;99.90
23507;DHT22;11930;53.076;18.250;2022-09-21T12:59:51;15.60;99.90
23507;DHT22;11930;53.076;18.250;2022-09-21T13:02:25;15.50;99.90
23507;DHT22;11930;53.076;18.250;2022-09-21T13:10:14;15.60;99.90
23507;DHT22;11930;53.076;18.250;2022-09-21T13:12:43;15.70;99.90
23507;DHT22;11930;53.076;18.250;2022-09-21T13:15:31;15.70;99.90
23507;DHT22;11930;53.076;18.250;2022-09-21T13:18:04;15.60;99.90
23507;DHT22;11930;53.076;18.250;2022-09-21T13:20:38;15.70;99.90
23507;DHT22;11930;53.076;18.250;2022-09-21T13:23:10;15.80;99.90
23507;DHT22;11930;53.076;18.250;2022-09-21T13:25:39;16.00;99.90
23507;DHT22;11930;53.076;18.250;2022-09-21T13:30:46;16.60;99.90
23507;DHT22;11930;53.076;18.250;2022-09-21T13:35:52;16.70;99.90
23507;DHT22;11930;53.076;18.250;2022-09-21T13:41:26;16.70;99.90
23507;DHT22;11930;53.076;18.250;2022-09-21T13:51:53;16.00;99.90
23507;DHT22;11930;53.076;18.250;2022-09-21T13:54:24;16.00;99.90
23507;DHT22;11930;53.076;18.250;2022-09-21T13:59:37;16.10;99.90
23507;DHT22;11930;53.076;18.250;2022-09-21T14:02:31;16.30;99.90
23507;DHT22;11930;53.076;18.250;2022-09-21T14:07:32;16.70;99.90
23507;DHT22;11930;53.076;18.250;2022-09-21T14:10:03;16.50;96.90
23507;DHT22;11930;53.076;18.250;2022-09-21T14:12:38;16.20;94.90
23507;DHT22;11930;53.076;18.250;2022-09-21T14:17:43;15.70;95.60
23507;DHT22;11930;53.076;18.250;2022-09-21T14:23:10;15.30;97.90
23507;DHT22;11930;53.076;18.250;2022-09-21T14:25:56;15.20;98.80
23507;DHT22;11930;53.076;18.250;2022-09-21T14:28:38;15.20;99.80
23507;DHT22;11930;53.076;18.250;2022-09-21T14:31:33;15.30;99.90
23507;DHT22;11930;53.076;18.250;2022-09-21T14:34:02;15.30;99.90
23507;DHT22;11930;53.076;18.250;2022-09-21T14:36:36;15.20;99.90
23507;DHT22;11930;53.076;18.250;2022-09-21T14:39:34;15.20;99.90
23507;DHT22;11930;53.076;18.250;2022-09-21T14:42:11;15.10;99.90
23507;DHT22;11930;53.076;18.250;2022-09-21T14:44:41;15.10;99.90
23507;DHT22;11930;53.076;18.250;2022-09-21T14:48:03;15.20;99.90
23507;DHT22;11930;53.076;18.250;2022-09-21T14:50:27;15.30;99.90
23507;DHT22;11930;53.076;18.250;2022-09-21T14:55:51;15.30;99.90
23507;DHT22;11930;53.076;18.250;2022-09-21T15:00:48;15.30;99.90
23507;DHT22;11930;53.076;18.250;2022-09-21T15:06:00;15.30;97.70
23507;DHT22;11930;53.076;18.250;2022-09-21T15:13:10;15.20;97.40
23507;DHT22;11930;53.076;18.250;2022-09-21T15:17:56;15.00;96.30
23507;DHT22;11930;53.076;18.250;2022-09-21T15:20:28;14.90;97.10
23507;DHT22;11930;53.076;18.250;2022-09-21T15:22:55;14.80;98.40
23507;DHT22;11930;53.076;18.250;2022-09-21T15:25:26;14.80;97.20
23507;DHT22;11930;53.076;18.250;2022-09-21T15:27:54;14.90;97.30
23507;DHT22;11930;53.076;18.250;2022-09-21T15:30:25;14.80;97.80
23507;DHT22;11930;53.076;18.250;2022-09-21T15:32:56;14.80;98.20
23507;DHT22;11930;53.076;18.250;2022-09-21T15:35:28;14.80;98.60
23507;DHT22;11930;53.076;18.250;2022-09-21T15:37:56;14.90;98.50
23507;DHT22;11930;53.076;18.250;2022-09-21T15:40:34;14.90;99.50
23507;DHT22;11930;53.076;18.250;2022-09-21T15:43:16;14.80;99.90
23507;DHT22;11930;53.076;18.250;2022-09-21T15:48:25;14.60;99.90
23507;DHT22;11930;53.076;18.250;2022-09-21T15:50:55;14.50;99.90
23507;DHT22;11930;53.076;18.250;2022-09-21T15:53:26;14.40;99.90
23507;DHT22;11930;53.076;18.250;2022-09-21T15:55:54;14.30;99.90
23507;DHT22;11930;53.076;18.250;2022-09-21T15:58:34;14.20;99.90
23507;DHT22;11930;53.076;18.250;2022-09-21T16:01:22;14.00;99.90
23507;DHT22;11930;53.076;18.250;2022-09-21T16:04:01;14.00;99.90
23507;DHT22;11930;53.076;18.250;2022-09-21T16:06:36;13.80;99.90
23507;DHT22;11930;53.076;18.250;2022-09-21T16:11:55;13.60;99.90
23507;DHT22;11930;53.076;18.250;2022-09-21T16:14:21;13.40;99.90
23507;DHT22;11930;53.076;18.250;2022-09-21T16:24:57;12.60;99.90
23507;DHT22;11930;53.076;18.250;2022-09-21T16:27:27;12.50;99.90
23507;DHT22;11930;53.076;18.250;2022-09-21T16:29:54;12.30;99.90
23507;DHT22;11930;53.076;18.250;2022-09-21T16:35:26;11.90;99.90
23507;DHT22;11930;53.076;18.250;2022-09-21T16:37:59;11.70;99.90
23507;DHT22;11930;53.076;18.250;2022-09-21T16:40:27;11.60;99.90
23507;DHT22;11930;53.076;18.250;2022-09-21T16:42:54;11.30;99.90
23507;DHT22;11930;53.076;18.250;2022-09-21T16:45:28;11.20;99.90
23507;DHT22;11930;53.076;18.250;2022-09-21T16:47:59;11.00;99.90
23507;DHT22;11930;53.076;18.250;2022-09-21T16:50:25;10.90;99.90
23507;DHT22;11930;53.076;18.250;2022-09-21T16:52:51;10.80;99.90
23507;DHT22;11930;53.076;18.250;2022-09-21T16:55:19;10.60;99.90
23507;DHT22;11930;53.076;18.250;2022-09-21T16:57:45;10.50;99.90
23507;DHT22;11930;53.076;18.250;2022-09-21T17:00:14;10.30;99.90
23507;DHT22;11930;53.076;18.250;2022-09-21T17:02:43;10.20;99.90
23507;DHT22;11930;53.076;18.250;2022-09-21T17:05:10;10.40;99.90
23507;DHT22;11930;53.076;18.250;2022-09-21T17:07:40;10.60;99.90
23507;DHT22;11930;53.076;18.250;2022-09-21T17:10:12;10.60;99.90
23507;DHT22;11930;53.076;18.250;2022-09-21T17:12:38;10.50;99.90
23507;DHT22;11930;53.076;18.250;2022-09-21T17:15:05;10.40;99.90
23507;DHT22;11930;53.076;18.250;2022-09-21T17:17:33;10.20;99.90
23507;DHT22;11930;53.076;18.250;2022-09-21T17:20:03;10.10;99.90
23507;DHT22;11930;53.076;18.250;2022-09-21T17:22:31;10.00;99.90
23507;DHT22;11930;53.076;18.250;2022-09-21T17:24:57;9.90;99.90
23507;DHT22;11930;53.076;18.250;2022-09-21T17:27:24;10.00;99.90
23507;DHT22;11930;53.076;18.250;2022-09-21T17:29:51;9.90;99.90
23507;DHT22;11930;53.076;18.250;2022-09-21T17:32:20;9.70;99.90
23507;DHT22;11930;53.076;18.250;2022-09-21T17:34:59;9.60;99.90
23507;DHT22;11930;53.076;18.250;2022-09-21T17:37:26;9.40;99.90
23507;DHT22;11930;53.076;18.250;2022-09-21T17:39:52;9.30;99.90
23507;DHT22;11930;53.076;18.250;2022-09-21T17:42:20;9.20;99.90
23507;DHT22;11930;53.076;18.250;2022-09-21T17:47:57;9.00;99.90
23507;DHT22;11930;53.076;18.250;2022-09-21T17:50:25;8.90;99.90
23507;DHT22;11930;53.076;18.250;2022-09-21T17:52:53;8.80;99.90
23507;DHT22;11930;53.076;18.250;2022-09-21T17:55:43;8.70;99.90
23507;DHT22;11930;53.076;18.250;2022-09-21T18:03:32;8.40;99.90
23507;DHT22;11930;53.076;18.250;2022-09-21T18:06:01;8.30;99.90
23507;DHT22;11930;53.076;18.250;2022-09-21T18:08:28;8.30;99.90
23507;DHT22;11930;53.076;18.250;2022-09-21T18:13:43;8.30;99.90
23507;DHT22;11930;53.076;18.250;2022-09-21T18:16:41;8.30;99.90
23507;DHT22;11930;53.076;18.250;2022-09-21T18:21:50;8.10;99.90
23507;DHT22;11930;53.076;18.250;2022-09-21T18:24:25;8.00;99.90
23507;DHT22;11930;53.076;18.250;2022-09-21T18:26:57;8.00;99.90
23507;DHT22;11930;53.076;18.250;2022-09-21T18:29:27;7.90;99.90
23507;DHT22;11930;53.076;18.250;2022-09-21T18:32:12;7.80;99.90
23507;DHT22;11930;53.076;18.250;2022-09-21T18:43:17;7.50;99.90
23507;DHT22;11930;53.076;18.250;2022-09-21T18:53:52;7.40;99.90
23507;DHT22;11930;53.076;18.250;2022-09-21T18:56:22;7.40;99.90
23507;DHT22;11930;53.076;18.250;2022-09-21T18:58:48;7.30;99.90
23507;DHT22;11930;53.076;18.250;2022-09-21T19:01:15;7.30;99.90
23507;DHT22;11930;53.076;18.250;2022-09-21T19:03:44;7.20;99.90
23507;DHT22;11930;53.076;18.250;2022-09-21T19:15:13;7.00;99.90
23507;DHT22;11930;53.076;18.250;2022-09-21T19:26:02;7.00;99.90
23507;DHT22;11930;53.076;18.250;2022-09-21T19:29:00;6.90;99.90
23507;DHT22;11930;53.076;18.250;2022-09-21T19:31:28;6.80;99.90
23507;DHT22;11930;53.076;18.250;2022-09-21T19:33:54;6.80;99.90
23507;DHT22;11930;53.076;18.250;2022-09-21T19:36:20;6.70;99.90
23507;DHT22;11930;53.076;18.250;2022-09-21T19:38:49;6.60;99.90
23507;DHT22;11930;53.076;18.250;2022-09-21T19:44:00;6.60;99.90
23507;DHT22;11930;53.076;18.250;2022-09-21T19:46:49;6.50;99.90
23507;DHT22;11930;53.076;18.250;2022-09-21T19:49:19;6.50;99.90
23507;DHT22;11930;53.076;18.250;2022-09-21T19:51:52;6.50;99.90
23507;DHT22;11930;53.076;18.250;2022-09-21T19:54:22;6.50;99.90
23507;DHT22;11930;53.076;18.250;2022-09-21T19:57:20;6.60;99.90
23507;DHT22;11930;53.076;18.250;2022-09-21T20:00:08;6.50;99.90
23507;DHT22;11930;53.076;18.250;2022-09-21T20:03:11;6.40;99.90